createdAt,value
2018-12-15T00:01:02.426Z,64.72
2018-12-15T00:03:31.095Z,64.56
2018-12-15T00:06:01.083Z,64.60
2018-12-15T00:08:30.452Z,64.31
2018-12-15T00:10:59.985Z,64.18
2018-12-15T00:13:29.081Z,64.35
2018-12-15T00:15:58.666Z,63.94
2018-12-15T00:18:28.094Z,64.12
2018-12-15T00:20:56.961Z,64.03
2018-12-15T00:23:27.021Z,63.85
2018-12-15T00:25:57.936Z,64.06
2018-12-15T00:28:27.650Z,64.56
2018-12-15T00:30:58.612Z,64.23
2018-12-15T00:33:33.235Z,64.36
2018-12-15T00:36:03.880Z,64.68
2018-12-15T00:38:32.595Z,64.60
2018-12-15T00:41:01.404Z,64.95
2018-12-15T00:43:30.216Z,64.61
2018-12-15T00:45:59.064Z,64.64
2018-12-15T00:48:28.193Z,64.43
2018-12-15T00:50:56.939Z,64.01
2018-12-15T00:53:26.324Z,64.28
2018-12-15T00:55:55.083Z,63.59
2018-12-15T00:58:23.871Z,63.81
2018-12-15T01:00:54.333Z,64.37
2018-12-15T01:03:23.096Z,63.94
2018-12-15T01:05:51.907Z,64.29
2018-12-15T01:08:20.642Z,64.12
2018-12-15T01:10:49.426Z,64.64
2018-12-15T01:13:18.831Z,64.23
2018-12-15T01:15:47.588Z,64.82
2018-12-15T01:18:16.405Z,64.51
2018-12-15T01:20:45.270Z,65.01
2018-12-15T01:23:14.070Z,65.04
2018-12-15T01:25:42.726Z,64.87
2018-12-15T01:28:11.607Z,64.76
2018-12-15T01:30:40.393Z,64.38
2018-12-15T01:33:09.108Z,63.98
2018-12-15T01:35:38.036Z,64.70
2018-12-15T01:38:06.830Z,64.22
2018-12-15T01:40:35.669Z,64.53
2018-12-15T01:43:04.545Z,64.54
2018-12-15T01:45:33.533Z,64.83
2018-12-15T01:48:02.863Z,64.94
2018-12-15T01:50:31.829Z,64.07
2018-12-15T01:53:00.646Z,64.48
2018-12-15T01:55:29.358Z,63.91
2018-12-15T01:57:58.297Z,64.73
2018-12-15T02:00:27.086Z,65.17
2018-12-15T02:02:55.868Z,65.06
2018-12-15T02:05:24.740Z,65.25
2018-12-15T02:07:53.481Z,65.28
2018-12-15T02:10:22.301Z,64.53
2018-12-15T02:12:51.204Z,64.89
2018-12-15T02:15:20.168Z,63.93
2018-12-15T02:17:48.922Z,64.54
2018-12-15T02:20:17.731Z,64.24
2018-12-15T02:22:46.527Z,64.58
2018-12-15T02:25:15.347Z,64.28
2018-12-15T02:27:44.240Z,64.50
2018-12-15T02:30:13.108Z,64.03
2018-12-15T02:32:41.910Z,64.58
2018-12-15T02:35:11.064Z,64.25
2018-12-15T02:37:40.208Z,64.25
2018-12-15T02:40:09.096Z,64.28
2018-12-15T02:42:37.825Z,64.47
2018-12-15T02:45:06.777Z,64.39
2018-12-15T02:47:41.607Z,64.24
2018-12-15T02:50:06.649Z,64.64
2018-12-15T02:52:35.682Z,64.15
2018-12-15T02:55:06.711Z,64.17
2018-12-15T02:57:37.225Z,63.89
2018-12-15T03:00:06.573Z,63.92
2018-12-15T03:02:36.023Z,64.20
2018-12-15T03:05:05.570Z,64.50
2018-12-15T03:07:34.287Z,63.87
2018-12-15T03:10:03.215Z,63.96
2018-12-15T03:12:32.234Z,64.86
2018-12-15T03:15:01.030Z,64.43
2018-12-15T03:17:29.781Z,64.50
2018-12-15T03:20:02.100Z,65.00
2018-12-15T03:22:30.800Z,64.97
2018-12-15T03:24:59.533Z,64.99
2018-12-15T03:27:28.441Z,65.33
2018-12-15T03:29:58.163Z,64.75
2018-12-15T03:32:26.921Z,65.36
2018-12-15T03:34:55.689Z,65.37
2018-12-15T03:37:24.536Z,65.27
2018-12-15T03:39:53.299Z,65.06
2018-12-15T03:42:24.195Z,65.00
2018-12-15T03:44:52.900Z,65.20
2018-12-15T03:47:21.789Z,65.53
2018-12-15T03:49:50.589Z,65.21
2018-12-15T03:52:20.243Z,65.54
2018-12-15T03:54:48.974Z,65.51
2018-12-15T03:57:17.892Z,65.67
2018-12-15T03:59:46.723Z,65.82
2018-12-15T04:02:15.529Z,66.01
2018-12-15T04:04:44.524Z,65.85
2018-12-15T04:07:13.921Z,66.58
2018-12-15T04:09:42.833Z,66.59
2018-12-15T04:12:11.544Z,66.29
2018-12-15T04:14:40.947Z,66.50
2018-12-15T04:17:10.320Z,66.61
2018-12-15T04:19:39.359Z,66.72
2018-12-15T04:22:19.703Z,66.71
2018-12-15T04:24:49.712Z,67.07
2018-12-15T04:27:19.236Z,66.74
2018-12-15T04:29:48.866Z,66.79
2018-12-15T04:32:18.831Z,66.93
2018-12-15T04:34:50.349Z,67.10
2018-12-15T04:37:19.692Z,66.48
2018-12-15T04:39:48.994Z,66.56
2018-12-15T04:42:19.198Z,66.38
2018-12-15T04:44:48.000Z,67.09
2018-12-15T04:47:16.711Z,67.68
2018-12-15T04:49:45.395Z,67.83
2018-12-15T04:52:14.219Z,67.88
2018-12-15T04:54:42.978Z,67.85
2018-12-15T04:59:37.513Z,67.49
2018-12-15T05:02:06.293Z,66.91
2018-12-15T05:04:34.954Z,67.12
2018-12-15T05:07:03.884Z,67.74
2018-12-15T05:09:32.637Z,67.97
2018-12-15T05:12:01.353Z,68.30
2018-12-15T05:14:30.144Z,68.20
2018-12-15T05:16:58.839Z,67.85
2018-12-15T05:19:28.449Z,67.64
2018-12-15T05:21:57.295Z,67.92
2018-12-15T05:24:28.200Z,68.15
2018-12-15T05:26:56.857Z,68.11
2018-12-15T05:29:25.719Z,67.92
2018-12-15T05:31:54.416Z,68.37
2018-12-15T05:34:23.198Z,68.20
2018-12-15T05:36:52.116Z,68.18
2018-12-15T05:39:20.913Z,68.06
2018-12-15T05:41:49.615Z,68.41
2018-12-15T05:44:18.385Z,68.26
2018-12-15T05:46:47.107Z,68.84
2018-12-15T05:49:15.775Z,69.17
2018-12-15T05:51:44.536Z,68.68
2018-12-15T05:54:13.224Z,68.67
2018-12-15T05:56:41.986Z,68.95
2018-12-15T05:59:10.825Z,69.35
2018-12-15T06:01:39.561Z,69.64
2018-12-15T06:04:08.406Z,69.55
2018-12-15T06:06:37.286Z,69.38
2018-12-15T06:09:06.924Z,69.71
2018-12-15T06:11:36.020Z,69.50
2018-12-15T06:14:05.219Z,69.47
2018-12-15T06:16:33.927Z,69.64
2018-12-15T06:19:02.797Z,69.80
2018-12-15T06:21:31.748Z,70.24
2018-12-15T06:24:00.456Z,69.83
2018-12-15T06:26:29.329Z,70.79
2018-12-15T06:28:58.813Z,70.57
2018-12-15T06:31:29.789Z,70.94
2018-12-15T06:34:00.542Z,70.87
2018-12-15T06:36:29.245Z,70.59
2018-12-15T06:38:59.042Z,70.24
2018-12-15T06:41:29.959Z,70.43
2018-12-15T06:43:58.960Z,70.58
2018-12-15T06:46:28.429Z,70.17
2018-12-15T06:48:57.145Z,70.75
2018-12-15T06:51:25.816Z,70.68
2018-12-15T06:53:54.505Z,70.74
2018-12-15T06:56:26.955Z,70.16
2018-12-15T06:58:56.473Z,70.22
2018-12-15T07:01:25.525Z,71.19
2018-12-15T07:03:55.530Z,71.20
2018-12-15T07:06:24.468Z,71.35
2018-12-15T07:08:53.684Z,71.67
2018-12-15T07:11:23.270Z,71.42
2018-12-15T07:13:52.226Z,71.16
2018-12-15T07:16:23.308Z,71.05
2018-12-15T07:18:53.643Z,70.60
2018-12-15T07:21:24.163Z,71.16
2018-12-15T07:23:54.884Z,70.64
2018-12-15T07:26:23.704Z,70.83
2018-12-15T07:28:52.509Z,70.93
2018-12-15T07:31:22.195Z,71.13
2018-12-15T07:33:52.984Z,71.49
2018-12-15T07:36:22.354Z,71.08
2018-12-15T07:38:51.431Z,71.68
2018-12-15T07:41:23.370Z,72.04
2018-12-15T07:43:53.252Z,71.40
2018-12-15T07:46:23.264Z,70.89
2018-12-15T07:48:53.969Z,71.17
2018-12-15T07:51:24.247Z,71.19
2018-12-15T07:53:53.110Z,71.36
2018-12-15T07:56:26.083Z,70.98
2018-12-15T07:58:57.571Z,70.79
2018-12-15T08:01:28.896Z,71.69
2018-12-15T08:03:58.562Z,71.53
2018-12-15T08:06:29.330Z,71.23
2018-12-15T08:08:59.770Z,71.49
2018-12-15T08:11:34.088Z,71.47
2018-12-15T08:14:07.843Z,71.06
2018-12-15T08:16:36.970Z,71.41
2018-12-15T08:19:07.299Z,70.99
2018-12-15T08:21:36.309Z,70.68
2018-12-15T08:24:06.244Z,70.84
2018-12-15T08:26:34.932Z,71.00
2018-12-15T08:29:03.737Z,71.50
2018-12-15T08:31:32.585Z,70.95
2018-12-15T08:34:01.364Z,71.09
2018-12-15T08:36:30.130Z,71.09
2018-12-15T08:38:58.932Z,70.85
2018-12-15T08:41:28.665Z,70.71
2018-12-15T08:43:57.432Z,70.90
2018-12-15T08:46:26.238Z,70.78
2018-12-15T08:48:55.018Z,71.24
2018-12-15T08:51:23.990Z,70.44
2018-12-15T08:53:52.900Z,70.93
2018-12-15T08:56:21.695Z,70.65
2018-12-15T08:58:50.448Z,70.63
2018-12-15T09:01:19.635Z,69.96
2018-12-15T09:03:48.771Z,69.96
2018-12-15T09:06:23.447Z,69.79
2018-12-15T09:08:52.341Z,69.99
2018-12-15T09:11:20.999Z,69.97
2018-12-15T09:13:49.932Z,69.90
2018-12-15T09:16:18.928Z,70.14
2018-12-15T09:18:47.648Z,69.71
2018-12-15T09:21:16.461Z,69.29
2018-12-15T09:23:45.144Z,68.96
2018-12-15T09:26:13.907Z,69.22
2018-12-15T09:28:42.768Z,68.79
2018-12-15T09:31:11.598Z,68.32
2018-12-15T09:33:40.348Z,68.36
2018-12-15T09:36:09.165Z,68.68
2018-12-15T09:38:37.903Z,68.46
2018-12-15T09:41:06.687Z,68.33
2018-12-15T09:43:35.576Z,68.40
2018-12-15T09:46:04.361Z,67.58
2018-12-15T09:48:33.091Z,67.89
2018-12-15T09:51:01.944Z,67.57
2018-12-15T09:53:30.685Z,67.29
2018-12-15T09:55:59.389Z,66.87
2018-12-15T09:58:29.075Z,66.39
2018-12-15T10:00:58.796Z,66.16
2018-12-15T10:03:27.501Z,66.17
2018-12-15T10:05:56.400Z,65.60
2018-12-15T10:08:25.263Z,65.91
2018-12-15T10:10:53.983Z,65.46
2018-12-15T10:13:22.681Z,65.78
2018-12-15T10:15:51.503Z,65.33
2018-12-15T10:18:20.394Z,64.92
2018-12-15T10:20:49.163Z,64.49
2018-12-15T10:23:17.919Z,64.73
2018-12-15T10:25:46.655Z,64.17
2018-12-15T10:28:15.505Z,64.07
2018-12-15T10:32:51.215Z,64.51
2018-12-15T10:35:20.581Z,64.06
2018-12-15T10:37:49.383Z,64.44
2018-12-15T10:40:18.272Z,64.24
2018-12-15T10:42:47.052Z,63.92
2018-12-15T10:45:15.924Z,63.24
2018-12-15T10:47:44.710Z,63.08
2018-12-15T10:50:13.886Z,63.62
2018-12-15T10:52:42.807Z,63.31
2018-12-15T10:55:11.588Z,63.75
2018-12-15T10:57:40.499Z,63.13
2018-12-15T11:00:16.874Z,63.47
2018-12-15T11:02:45.985Z,62.71
2018-12-15T11:05:14.643Z,62.95
2018-12-15T11:07:43.623Z,62.16
2018-12-15T11:10:12.475Z,62.77
2018-12-15T11:12:41.168Z,62.13
2018-12-15T11:15:10.194Z,61.48
2018-12-15T11:17:42.766Z,62.03
2018-12-15T11:20:11.767Z,61.22
2018-12-15T11:22:40.533Z,61.32
2018-12-15T11:25:09.525Z,61.48
2018-12-15T11:27:38.230Z,61.86
2018-12-15T11:30:07.620Z,61.12
2018-12-15T11:32:36.704Z,60.57
2018-12-15T11:35:05.805Z,60.45
2018-12-15T11:37:34.481Z,60.85
2018-12-15T11:40:03.231Z,60.01
2018-12-15T11:42:31.856Z,61.09
2018-12-15T11:45:00.582Z,60.65
2018-12-15T11:47:29.499Z,60.16
2018-12-15T11:49:58.811Z,60.60
2018-12-15T11:52:27.520Z,61.04
2018-12-15T11:54:56.248Z,61.31
2018-12-15T11:57:24.995Z,61.26
2018-12-15T11:59:53.651Z,60.85
2018-12-15T12:02:22.431Z,60.62
2018-12-15T12:04:51.099Z,60.61
2018-12-15T12:07:19.784Z,60.86
2018-12-15T12:09:48.583Z,59.96
2018-12-15T12:12:17.288Z,59.80
2018-12-15T12:14:46.070Z,59.82
2018-12-15T12:17:14.803Z,59.23
2018-12-15T12:19:50.003Z,59.79
2018-12-15T12:22:15.258Z,58.46
2018-12-15T12:24:44.088Z,58.93
2018-12-15T12:27:12.824Z,58.16
2018-12-15T12:29:41.739Z,57.62
2018-12-15T12:32:10.501Z,57.84
2018-12-15T12:34:39.196Z,57.53
2018-12-15T12:37:07.932Z,57.77
2018-12-15T12:39:36.629Z,57.94
2018-12-15T12:42:05.352Z,57.40
2018-12-15T12:44:34.082Z,57.30
2018-12-15T12:47:02.870Z,57.52
2018-12-15T12:49:31.658Z,57.97
2018-12-15T12:52:01.470Z,57.93
2018-12-15T12:54:30.259Z,57.73
2018-12-15T12:56:59.050Z,57.21
2018-12-15T12:59:28.245Z,57.07
2018-12-15T13:01:57.021Z,56.80
2018-12-15T13:04:25.733Z,56.21
2018-12-15T13:06:54.607Z,56.75
2018-12-15T13:09:23.509Z,56.40
2018-12-15T13:11:52.189Z,55.97
2018-12-15T13:14:27.432Z,56.23
2018-12-15T13:16:58.779Z,55.17
2018-12-15T13:19:36.635Z,54.92
2018-12-15T13:22:10.445Z,54.02
2018-12-15T13:24:43.779Z,53.68
2018-12-15T13:27:18.436Z,53.81
2018-12-15T13:29:51.308Z,54.61
2018-12-15T13:32:25.118Z,54.54
2018-12-15T13:34:59.542Z,54.47
2018-12-15T13:42:35.592Z,53.90
2018-12-15T13:45:07.916Z,53.73
2018-12-15T13:47:36.873Z,53.09
2018-12-15T13:50:10.247Z,53.27
2018-12-15T13:52:39.616Z,53.18
2018-12-15T13:55:08.585Z,53.15
2018-12-15T13:57:37.317Z,52.99
2018-12-15T14:00:06.380Z,52.79
2018-12-15T14:02:35.067Z,53.18
2018-12-15T14:05:03.876Z,53.26
2018-12-15T14:07:34.984Z,53.16
2018-12-15T14:10:05.181Z,52.70
2018-12-15T14:12:34.023Z,52.35
2018-12-15T14:15:02.826Z,52.17
2018-12-15T14:17:31.521Z,52.59
2018-12-15T14:20:00.843Z,52.36
2018-12-15T14:22:29.635Z,52.75
2018-12-15T14:24:59.401Z,52.71
2018-12-15T14:27:29.137Z,52.82
2018-12-15T14:29:57.928Z,52.67
2018-12-15T14:32:26.661Z,53.39
2018-12-15T14:34:55.432Z,52.51
2018-12-15T14:37:24.239Z,52.92
2018-12-15T14:39:53.100Z,52.69
2018-12-15T14:42:21.757Z,52.75
2018-12-15T14:44:50.603Z,52.78
2018-12-15T14:47:19.334Z,52.42
2018-12-15T14:49:47.999Z,52.60
2018-12-15T14:52:16.740Z,52.91
2018-12-15T14:54:45.531Z,52.89
2018-12-15T14:57:16.297Z,52.21
2018-12-15T14:59:45.307Z,52.41
2018-12-15T15:02:14.144Z,52.75
2018-12-15T15:04:42.833Z,52.51
2018-12-15T15:07:12.040Z,52.81
2018-12-15T15:09:40.751Z,52.42
2018-12-15T15:12:09.471Z,52.40
2018-12-15T15:14:38.720Z,51.81
2018-12-15T15:17:07.456Z,52.07
2018-12-15T15:19:36.163Z,51.56
2018-12-15T15:22:05.750Z,51.48
2018-12-15T15:24:34.759Z,51.92
2018-12-15T15:27:03.760Z,51.81
2018-12-15T15:29:32.656Z,52.11
2018-12-15T15:32:01.380Z,52.44
2018-12-15T15:34:30.074Z,52.80
2018-12-15T15:36:59.786Z,52.56
2018-12-15T15:39:29.185Z,52.74
2018-12-15T15:41:58.000Z,53.19
2018-12-15T15:44:26.743Z,53.41
2018-12-15T15:46:55.470Z,53.76
2018-12-15T15:49:24.401Z,53.92
2018-12-15T15:51:53.150Z,54.80
2018-12-15T15:54:22.508Z,54.69
2018-12-15T15:56:51.343Z,55.10
2018-12-15T15:59:20.319Z,55.37
2018-12-15T16:01:49.209Z,55.32
2018-12-15T16:04:17.911Z,55.21
2018-12-15T16:06:46.721Z,55.60
2018-12-15T16:09:15.487Z,55.49
2018-12-15T16:11:44.208Z,56.51
2018-12-15T16:14:13.228Z,56.23
2018-12-15T16:16:41.886Z,56.28
2018-12-15T16:19:10.598Z,56.67
2018-12-15T16:21:39.535Z,57.19
2018-12-15T16:24:08.380Z,57.42
2018-12-15T16:26:37.489Z,57.44
2018-12-15T16:29:06.373Z,58.03
2018-12-15T16:34:27.387Z,58.19
2018-12-15T16:36:56.264Z,58.22
2018-12-15T16:39:25.117Z,58.57
2018-12-15T16:41:53.945Z,58.71
2018-12-15T16:44:22.744Z,58.36
2018-12-15T16:46:55.187Z,58.55
2018-12-15T16:49:23.851Z,58.62
2018-12-15T16:51:52.546Z,58.77
2018-12-15T16:54:21.458Z,59.28
2018-12-15T16:56:50.192Z,59.38
2018-12-15T16:59:18.936Z,59.17
2018-12-15T17:01:49.565Z,59.76
2018-12-15T17:04:18.253Z,60.16
2018-12-15T17:06:47.112Z,60.04
2018-12-15T17:09:16.334Z,59.77
2018-12-15T17:11:45.084Z,60.25
2018-12-15T17:14:13.936Z,60.25
2018-12-15T17:16:43.817Z,60.24
2018-12-15T17:19:12.498Z,60.11
2018-12-15T17:21:41.300Z,59.93
2018-12-15T17:24:10.113Z,60.60
2018-12-15T17:26:39.050Z,60.51
2018-12-15T17:29:07.936Z,60.34
2018-12-15T17:31:36.659Z,60.12
2018-12-15T17:34:05.510Z,60.08
2018-12-15T17:36:34.231Z,59.93
2018-12-15T17:39:03.135Z,60.06
2018-12-15T17:41:31.912Z,60.51
2018-12-15T17:44:00.635Z,60.41
2018-12-15T17:46:29.732Z,60.81
2018-12-15T17:48:59.485Z,60.56
2018-12-15T17:51:28.229Z,60.92
2018-12-15T17:53:58.023Z,60.81
2018-12-15T17:56:29.856Z,60.85
2018-12-15T17:58:59.511Z,61.23
2018-12-15T18:01:28.366Z,61.00
2018-12-15T18:03:57.122Z,61.29
2018-12-15T18:06:25.961Z,61.29
2018-12-15T18:08:54.938Z,61.85
2018-12-15T18:11:23.623Z,61.38
2018-12-15T18:13:52.369Z,61.85
2018-12-15T18:16:21.205Z,61.95
2018-12-15T18:18:50.300Z,62.06
2018-12-15T18:21:19.323Z,62.42
2018-12-15T18:23:48.036Z,62.19
2018-12-15T18:26:16.720Z,62.24
2018-12-15T18:28:46.136Z,62.20
2018-12-15T18:31:14.969Z,62.08
2018-12-15T18:33:43.655Z,62.37
2018-12-15T18:36:12.648Z,62.57
2018-12-15T18:38:41.280Z,62.64
2018-12-15T18:41:09.992Z,63.34
2018-12-15T18:43:38.780Z,63.31
2018-12-15T18:46:07.491Z,63.55
2018-12-15T18:48:36.572Z,62.95
2018-12-15T18:51:05.457Z,62.69
2018-12-15T18:53:34.154Z,62.41
2018-12-15T18:56:03.033Z,62.33
2018-12-15T18:58:31.860Z,61.84
2018-12-15T19:01:00.581Z,62.00
2018-12-15T19:03:29.504Z,61.40
2018-12-15T19:05:58.601Z,61.95
2018-12-15T19:08:27.357Z,61.63
2018-12-15T19:10:56.098Z,61.48
2018-12-15T19:13:25.101Z,61.96
2018-12-15T19:15:53.780Z,61.85
2018-12-15T19:18:22.510Z,61.71
2018-12-15T19:20:51.430Z,61.58
2018-12-15T19:23:20.070Z,61.27
2018-12-15T19:25:48.772Z,60.94
2018-12-15T19:28:17.624Z,61.05
2018-12-15T19:30:46.291Z,61.57
2018-12-15T19:33:15.099Z,61.57
2018-12-15T19:35:43.841Z,61.67
2018-12-15T19:38:12.476Z,61.35
2018-12-15T19:40:41.131Z,61.68
2018-12-15T19:43:10.483Z,61.40
2018-12-15T19:45:39.175Z,61.50
2018-12-15T19:48:07.881Z,62.00
2018-12-15T19:50:36.635Z,62.27
2018-12-15T19:53:05.406Z,61.71
2018-12-15T19:55:34.718Z,62.00
2018-12-15T19:58:03.635Z,62.56
2018-12-15T20:00:32.395Z,62.17
2018-12-15T20:03:01.165Z,62.05
2018-12-15T20:05:29.975Z,61.93
2018-12-15T20:07:59.605Z,61.75
2018-12-15T20:10:28.714Z,61.75
2018-12-15T20:12:57.591Z,61.95
2018-12-15T20:15:26.464Z,62.53
2018-12-15T20:17:57.946Z,63.11
2018-12-15T20:20:27.010Z,63.07
2018-12-15T20:22:55.731Z,62.96
2018-12-15T20:25:24.519Z,62.74
2018-12-15T20:27:53.536Z,62.94
2018-12-15T20:30:22.273Z,62.67
2018-12-15T20:32:51.027Z,62.74
2018-12-15T20:35:19.948Z,63.33
2018-12-15T20:37:48.692Z,63.62
2018-12-15T20:40:17.480Z,63.89
2018-12-15T20:42:46.405Z,63.52
2018-12-15T20:45:15.215Z,62.76
2018-12-15T20:47:44.162Z,62.85
2018-12-15T20:50:13.177Z,62.99
2018-12-15T20:52:47.394Z,62.51
2018-12-15T20:55:12.824Z,62.24
2018-12-15T20:57:41.669Z,62.07
2018-12-15T21:00:10.706Z,62.62
2018-12-15T21:02:39.348Z,62.45
2018-12-15T21:05:08.519Z,61.95
2018-12-15T21:07:37.234Z,62.13
2018-12-15T21:10:07.454Z,62.01
2018-12-15T21:12:36.285Z,62.21
2018-12-15T21:15:10.767Z,62.03
2018-12-15T21:17:39.753Z,61.65
2018-12-15T21:20:09.950Z,61.66
2018-12-15T21:22:38.919Z,61.45
2018-12-15T21:25:07.933Z,61.22
2018-12-15T21:27:36.684Z,61.22
2018-12-15T21:30:06.691Z,60.88
2018-12-15T21:32:35.557Z,61.04
2018-12-15T21:35:04.654Z,61.46
2018-12-15T21:37:33.523Z,61.40
2018-12-15T21:40:02.556Z,61.29
2018-12-15T21:42:31.783Z,61.23
2018-12-15T21:45:00.775Z,61.37
2018-12-15T21:47:29.680Z,61.54
2018-12-15T21:49:58.481Z,61.71
2018-12-15T21:52:27.238Z,61.47
2018-12-15T21:54:56.189Z,61.80
2018-12-15T21:57:24.911Z,62.83
2018-12-15T21:59:53.829Z,62.84
2018-12-15T22:02:22.732Z,62.66
2018-12-15T22:04:51.432Z,63.02
2018-12-15T22:07:20.133Z,63.50
2018-12-15T22:09:48.926Z,63.57
2018-12-15T22:12:17.776Z,63.10
2018-12-15T22:14:46.509Z,63.69
2018-12-15T22:17:15.458Z,64.05
2018-12-15T22:19:44.223Z,63.97
2018-12-15T22:22:13.011Z,63.98
2018-12-15T22:24:42.349Z,64.80
2018-12-15T22:27:11.100Z,65.25
2018-12-15T22:29:39.856Z,65.53
2018-12-15T22:32:08.743Z,66.24
2018-12-15T22:34:37.479Z,66.43
2018-12-15T22:37:06.312Z,66.91
2018-12-15T22:39:35.493Z,66.49
2018-12-15T22:42:05.174Z,67.23
2018-12-15T22:44:33.964Z,67.63
2018-12-15T22:47:03.112Z,68.20
2018-12-15T22:49:31.879Z,67.95
2018-12-15T22:52:00.667Z,68.37
2018-12-15T22:54:29.995Z,68.37
2018-12-15T22:56:59.884Z,68.77
2018-12-15T22:59:28.672Z,68.92
2018-12-15T23:01:58.461Z,68.85
2018-12-15T23:04:27.507Z,68.38
2018-12-15T23:06:57.103Z,69.38
2018-12-15T23:09:26.344Z,69.56
2018-12-15T23:11:55.113Z,69.53
2018-12-15T23:14:24.061Z,70.01
2018-12-15T23:16:52.951Z,70.29
2018-12-15T23:19:22.380Z,70.67
2018-12-15T23:21:51.109Z,70.23
2018-12-15T23:24:19.903Z,71.12
2018-12-15T23:26:48.667Z,71.36
2018-12-15T23:29:17.508Z,71.03
2018-12-15T23:31:46.633Z,71.17
2018-12-15T23:34:15.315Z,71.20
2018-12-15T23:36:44.106Z,71.30
2018-12-15T23:39:13.035Z,71.63
2018-12-15T23:41:42.089Z,70.61
2018-12-15T23:44:10.995Z,71.19
2018-12-15T23:46:39.978Z,71.47
2018-12-15T23:49:08.701Z,71.21
2018-12-15T23:51:37.406Z,70.80
2018-12-15T23:54:06.233Z,70.85
2018-12-15T23:56:35.019Z,70.63
2018-12-15T23:59:03.880Z,70.32
